Time;durP1;ratioP1;P1;durP2;ratioP2;P2;SDS_P1;SDS_P2;PMS_P1;PMS_P2;Temp;Humidity;BMP_temperature;BMP_pressure;BME280_temperature;BME280_humidity;BME280_pressure;Samples;Min_cycle;Max_cycle;Signal;HPM_P1;HPM_P2
2023/01/20 00:01:01;;;;;;;12.00;10.80;;;;;;;;;;5072897;28;20380;-86
2023/01/20 00:03:27;;;;;;;12.17;10.97;;;;;;;;;;5066416;28;20378;-87
2023/01/20 00:05:53;;;;;;;13.13;11.18;;;;;;;;;;5059979;28;20420;-87
2023/01/20 00:08:19;;;;;;;13.10;11.80;;;;;;;;;;5054439;28;20377;-87
2023/01/20 00:10:45;;;;;;;12.93;11.60;;;;;;;;;;5059081;28;20418;-86
2023/01/20 00:13:11;;;;;;;13.33;11.73;;;;;;;;;;5070879;28;20383;-87
2023/01/20 00:15:37;;;;;;;13.77;12.30;;;;;;;;;;5054017;28;20382;-88
2023/01/20 00:18:03;;;;;;;13.33;11.93;;;;;;;;;;5059408;28;20413;-87
2023/01/20 00:20:29;;;;;;;12.10;10.90;;;;;;;;;;5061669;28;20381;-87
2023/01/20 00:22:55;;;;;;;12.02;10.88;;;;;;;;;;5052258;28;20516;-87
2023/01/20 00:25:21;;;;;;;13.27;12.00;;;;;;;;;;5052628;28;20886;-86
2023/01/20 00:27:47;;;;;;;12.77;11.48;;;;;;;;;;5055478;28;20382;-87
2023/01/20 00:30:14;;;;;;;12.32;11.10;;;;;;;;;;5061090;28;20398;-87
2023/01/20 00:32:44;;;;;;;13.60;11.82;;;;;;;;;;5055590;28;20774;-86
2023/01/20 00:35:13;;;;;;;12.40;11.20;;;;;;;;;;5068790;28;20390;-87
2023/01/20 00:37:39;;;;;;;12.18;10.98;;;;;;;;;;5065406;28;20407;-87
2023/01/20 00:40:06;;;;;;;13.25;11.95;;;;;;;;;;5066308;28;20881;-87
2023/01/20 00:42:32;;;;;;;13.18;11.63;;;;;;;;;;5066899;28;20466;-88
2023/01/20 00:44:58;;;;;;;12.20;11.00;;;;;;;;;;5072862;28;20428;-87
2023/01/20 00:47:24;;;;;;;12.30;11.10;;;;;;;;;;5064004;28;20452;-87
2023/01/20 00:49:50;;;;;;;15.02;11.48;;;;;;;;;;5062821;28;20397;-87
2023/01/20 00:52:17;;;;;;;12.93;11.63;;;;;;;;;;5071175;28;20434;-87
2023/01/20 00:54:43;;;;;;;12.23;11.07;;;;;;;;;;5062613;28;20396;-85
2023/01/20 00:57:09;;;;;;;12.07;10.98;;;;;;;;;;5078807;28;20409;-84
2023/01/20 00:59:35;;;;;;;12.52;11.32;;;;;;;;;;5081395;28;20383;-87
2023/01/20 01:02:01;;;;;;;12.73;11.63;;;;;;;;;;5071678;28;20378;-86
2023/01/20 01:04:27;;;;;;;12.52;11.25;;;;;;;;;;5067298;28;20380;-86
2023/01/20 01:06:53;;;;;;;12.60;11.40;;;;;;;;;;5069941;28;20375;-86
2023/01/20 01:09:20;;;;;;;12.00;10.90;;;;;;;;;;5058939;28;20840;-85
2023/01/20 01:11:46;;;;;;;12.25;11.15;;;;;;;;;;5057263;28;20434;-87
2023/01/20 01:14:12;;;;;;;13.02;11.82;;;;;;;;;;5063732;28;20384;-86
2023/01/20 01:16:38;;;;;;;13.53;12.13;;;;;;;;;;5057675;28;20457;-86
2023/01/20 01:19:05;;;;;;;13.73;12.32;;;;;;;;;;5059806;28;20413;-85
2023/01/20 01:21:31;;;;;;;14.00;12.60;;;;;;;;;;5052731;28;20740;-86
2023/01/20 01:23:57;;;;;;;13.18;11.90;;;;;;;;;;5054824;28;20407;-86
2023/01/20 01:26:23;;;;;;;12.90;11.63;;;;;;;;;;5060627;28;20421;-85
2023/01/20 01:28:49;;;;;;;13.40;12.20;;;;;;;;;;5068606;28;20389;-85
2023/01/20 01:31:16;;;;;;;13.00;11.70;;;;;;;;;;5063528;28;20379;-86
2023/01/20 01:33:42;;;;;;;13.07;11.80;;;;;;;;;;5057282;28;20386;-87
2023/01/20 01:36:11;;;;;;;12.93;11.57;;;;;;;;;;5060795;28;20446;-85
2023/01/20 01:38:37;;;;;;;12.20;11.10;;;;;;;;;;5053663;28;20417;-85
2023/01/20 01:41:03;;;;;;;13.57;12.20;;;;;;;;;;5052605;28;20389;-86
2023/01/20 01:43:33;;;;;;;13.70;12.30;;;;;;;;;;5065248;28;20384;-86
2023/01/20 01:46:00;;;;;;;13.20;12.00;;;;;;;;;;5054716;28;20369;-87
2023/01/20 01:48:32;;;;;;;13.15;11.95;;;;;;;;;;5053928;28;20389;-88
2023/01/20 01:51:00;;;;;;;13.40;12.20;;;;;;;;;;5064570;28;20376;-85
2023/01/20 01:53:26;;;;;;;14.02;11.40;;;;;;;;;;5061805;28;20459;-87
2023/01/20 01:55:58;;;;;;;13.23;12.00;;;;;;;;;;5054344;28;20481;-87
2023/01/20 01:58:26;;;;;;;12.95;11.63;;;;;;;;;;5054222;28;20411;-87
2023/01/20 02:00:52;;;;;;;12.60;11.32;;;;;;;;;;5059957;28;20392;-87
2023/01/20 02:03:19;;;;;;;12.90;11.70;;;;;;;;;;5056278;28;20391;-87
2023/01/20 02:05:45;;;;;;;13.15;11.80;;;;;;;;;;5059652;28;20412;-87
2023/01/20 02:08:11;;;;;;;13.65;12.10;;;;;;;;;;5052553;28;20381;-88
2023/01/20 02:10:37;;;;;;;12.40;11.23;;;;;;;;;;5051680;28;20468;-87
2023/01/20 02:13:04;;;;;;;13.90;12.50;;;;;;;;;;5055823;28;20435;-87
2023/01/20 02:15:38;;;;;;;13.93;12.63;;;;;;;;;;5062781;28;20387;-87
2023/01/20 02:18:16;;;;;;;14.57;12.93;;;;;;;;;;5054489;28;20432;-86
2023/01/20 02:21:01;;;;;;;14.13;12.73;;;;;;;;;;5060736;28;20381;-87
2023/01/20 02:23:43;;;;;;;14.07;12.10;;;;;;;;;;5055053;28;20382;-87
2023/01/20 02:26:12;;;;;;;13.95;12.20;;;;;;;;;;5051245;28;20409;-87
2023/01/20 02:28:53;;;;;;;13.68;12.18;;;;;;;;;;5054887;28;20421;-86
2023/01/20 02:31:22;;;;;;;14.23;12.20;;;;;;;;;;5061000;28;20389;-86
2023/01/20 02:34:01;;;;;;;13.55;12.10;;;;;;;;;;5054361;28;20454;-86
2023/01/20 02:36:44;;;;;;;14.07;12.68;;;;;;;;;;5066996;28;20388;-86
2023/01/20 02:39:20;;;;;;;13.60;12.32;;;;;;;;;;5051680;28;20398;-86
2023/01/20 02:41:49;;;;;;;13.73;12.32;;;;;;;;;;5056336;28;20374;-86
2023/01/20 02:44:19;;;;;;;14.82;12.55;;;;;;;;;;5063759;28;20844;-85
2023/01/20 02:46:54;;;;;;;14.07;12.63;;;;;;;;;;5084874;28;20782;-85
2023/01/20 02:49:27;;;;;;;13.13;11.80;;;;;;;;;;5058143;28;20375;-86
2023/01/20 02:51:59;;;;;;;13.80;12.40;;;;;;;;;;5072956;28;20714;-86
2023/01/20 02:54:27;;;;;;;13.70;12.30;;;;;;;;;;5072512;28;20926;-86
2023/01/20 02:56:54;;;;;;;13.60;12.20;;;;;;;;;;5072746;28;20382;-87
2023/01/20 02:59:22;;;;;;;13.65;12.25;;;;;;;;;;5065212;28;20396;-86
2023/01/20 03:02:03;;;;;;;14.93;12.82;;;;;;;;;;5057551;28;20793;-86
2023/01/20 03:04:33;;;;;;;14.67;13.03;;;;;;;;;;5066372;28;20368;-86
2023/01/20 03:06:59;;;;;;;15.30;13.70;;;;;;;;;;5071424;28;20372;-87
2023/01/20 03:09:28;;;;;;;13.32;11.93;;;;;;;;;;5073804;28;20368;-86
2023/01/20 03:11:57;;;;;;;12.90;11.68;;;;;;;;;;5082950;28;20374;-86
2023/01/20 03:14:23;;;;;;;13.45;12.05;;;;;;;;;;5083756;28;20384;-86
2023/01/20 03:16:49;;;;;;;12.63;11.32;;;;;;;;;;5075440;28;20837;-86
2023/01/20 03:19:16;;;;;;;12.53;11.30;;;;;;;;;;5076506;28;20376;-85
2023/01/20 03:21:42;;;;;;;13.75;12.00;;;;;;;;;;5078870;28;20869;-87
2023/01/20 03:24:08;;;;;;;12.57;11.38;;;;;;;;;;5078250;28;20392;-86
2023/01/20 03:26:34;;;;;;;13.20;11.90;;;;;;;;;;5063542;28;20530;-87
2023/01/20 03:29:04;;;;;;;12.38;11.27;;;;;;;;;;5075979;28;20462;-86
2023/01/20 03:31:34;;;;;;;13.05;11.82;;;;;;;;;;5076100;28;20438;-85
2023/01/20 03:34:01;;;;;;;13.23;12.02;;;;;;;;;;5075687;28;20927;-87
2023/01/20 03:36:28;;;;;;;13.63;12.35;;;;;;;;;;5075851;28;20409;-86
2023/01/20 03:38:54;;;;;;;12.88;11.68;;;;;;;;;;5073705;28;20404;-86
2023/01/20 03:41:27;;;;;;;12.00;10.88;;;;;;;;;;5075720;28;20372;-86
2023/01/20 03:44:02;;;;;;;12.90;11.57;;;;;;;;;;5070775;28;20375;-87
2023/01/20 03:46:37;;;;;;;12.05;10.95;;;;;;;;;;5073497;28;20383;-86
2023/01/20 03:49:23;;;;;;;12.23;11.13;;;;;;;;;;5074460;28;20396;-87
2023/01/20 03:52:08;;;;;;;13.32;12.00;;;;;;;;;;5059211;28;20414;-86
2023/01/20 03:54:42;;;;;;;14.50;12.98;;;;;;;;;;5073063;28;20411;-86
2023/01/20 03:57:18;;;;;;;13.82;12.52;;;;;;;;;;5082191;28;20809;-87
2023/01/20 03:59:45;;;;;;;13.70;12.30;;;;;;;;;;5073642;28;20853;-86
2023/01/20 04:02:11;;;;;;;14.43;13.05;;;;;;;;;;5073682;28;20384;-86
2023/01/20 04:04:39;;;;;;;14.35;13.00;;;;;;;;;;5073765;28;20428;-86
2023/01/20 04:07:05;;;;;;;12.98;11.70;;;;;;;;;;5074802;28;20379;-86
2023/01/20 04:09:34;;;;;;;13.60;12.10;;;;;;;;;;5089316;28;20440;-85
2023/01/20 04:12:00;;;;;;;13.75;12.35;;;;;;;;;;5082774;28;20851;-87
2023/01/20 04:14:27;;;;;;;17.00;14.47;;;;;;;;;;5068277;28;20894;-86
2023/01/20 04:16:55;;;;;;;16.58;13.73;;;;;;;;;;5075191;28;20391;-86
2023/01/20 04:19:21;;;;;;;16.02;13.60;;;;;;;;;;5087185;28;20376;-86
2023/01/20 04:22:02;;;;;;;16.73;13.73;;;;;;;;;;5083851;28;20413;-87
2023/01/20 04:24:32;;;;;;;17.17;15.30;;;;;;;;;;5097589;28;20395;-86
2023/01/20 04:26:58;;;;;;;17.48;13.90;;;;;;;;;;5068776;28;20408;-88
2023/01/20 04:29:24;;;;;;;14.23;12.85;;;;;;;;;;5078112;28;20390;-86
2023/01/20 04:31:50;;;;;;;13.50;12.10;;;;;;;;;;5075076;28;20410;-87
2023/01/20 04:34:16;;;;;;;13.30;12.00;;;;;;;;;;5075005;28;20376;-87
2023/01/20 04:36:42;;;;;;;14.00;12.55;;;;;;;;;;5067543;28;20400;-86
2023/01/20 04:39:08;;;;;;;14.50;13.10;;;;;;;;;;5061479;28;20420;-87
2023/01/20 04:41:34;;;;;;;13.57;12.27;;;;;;;;;;5066770;28;20824;-87
2023/01/20 04:44:00;;;;;;;13.82;12.45;;;;;;;;;;5068896;28;20383;-87
2023/01/20 04:46:26;;;;;;;13.63;12.23;;;;;;;;;;5072903;28;20392;-87
2023/01/20 04:48:52;;;;;;;16.23;14.53;;;;;;;;;;5071318;28;20414;-88
2023/01/20 04:51:18;;;;;;;15.13;13.63;;;;;;;;;;5070591;28;20391;-87
2023/01/20 04:53:45;;;;;;;14.77;13.27;;;;;;;;;;5069532;28;20926;-86
2023/01/20 04:56:11;;;;;;;15.68;14.18;;;;;;;;;;5069684;28;20771;-88
2023/01/20 04:58:40;;;;;;;15.30;13.80;;;;;;;;;;5070676;28;20453;-86
2023/01/20 05:01:06;;;;;;;14.05;12.75;;;;;;;;;;5069109;28;20364;-87
2023/01/20 05:03:33;;;;;;;14.68;13.25;;;;;;;;;;5073535;28;20380;-87
2023/01/20 05:05:59;;;;;;;13.32;12.10;;;;;;;;;;5071198;28;20865;-87
2023/01/20 05:08:25;;;;;;;13.85;12.52;;;;;;;;;;5072921;28;20753;-88
2023/01/20 05:10:51;;;;;;;13.77;12.40;;;;;;;;;;5060514;28;20390;-90
2023/01/20 05:13:17;;;;;;;13.15;11.85;;;;;;;;;;5056671;28;20383;-89
2023/01/20 05:15:43;;;;;;;13.35;12.05;;;;;;;;;;5061483;28;20712;-89
2023/01/20 05:18:09;;;;;;;12.13;11.13;;;;;;;;;;5064359;28;20426;-89
2023/01/20 05:20:35;;;;;;;12.60;11.30;;;;;;;;;;5057770;28;20755;-93
2023/01/20 05:23:01;;;;;;;12.55;11.35;;;;;;;;;;5071870;28;20384;-88
2023/01/20 05:25:27;;;;;;;12.95;11.77;;;;;;;;;;5053376;28;20393;-89
2023/01/20 05:27:53;;;;;;;13.32;12.07;;;;;;;;;;5062650;28;20391;-89
2023/01/20 05:30:20;;;;;;;14.23;12.87;;;;;;;;;;5056055;28;20389;-89
2023/01/20 05:32:49;;;;;;;14.80;12.40;;;;;;;;;;5051372;28;20392;-89
2023/01/20 05:35:15;;;;;;;13.80;12.50;;;;;;;;;;5062415;28;20869;-90
2023/01/20 05:37:47;;;;;;;13.98;12.68;;;;;;;;;;5062906;28;20432;-90
2023/01/20 05:40:13;;;;;;;15.00;13.52;;;;;;;;;;5055378;28;20700;-87
2023/01/20 05:42:39;;;;;;;13.93;12.52;;;;;;;;;;5055507;28;20447;-90
2023/01/20 05:45:05;;;;;;;14.30;12.90;;;;;;;;;;5072102;28;20384;-89
2023/01/20 05:47:31;;;;;;;15.00;12.85;;;;;;;;;;5073359;28;20460;-88
2023/01/20 05:49:57;;;;;;;14.25;12.85;;;;;;;;;;5074087;28;20384;-90
2023/01/20 05:52:23;;;;;;;13.60;12.40;;;;;;;;;;5072193;28;20734;-87
2023/01/20 05:54:49;;;;;;;13.55;12.30;;;;;;;;;;5064323;28;20422;-87
2023/01/20 05:57:17;;;;;;;13.70;12.40;;;;;;;;;;5073679;28;20407;-89
2023/01/20 05:59:44;;;;;;;13.88;12.43;;;;;;;;;;5058275;28;20459;-89
2023/01/20 06:02:12;;;;;;;13.85;12.55;;;;;;;;;;5069425;28;20397;-91
2023/01/20 06:04:38;;;;;;;14.93;13.43;;;;;;;;;;5058514;28;20874;-89
2023/01/20 06:07:10;;;;;;;15.80;14.20;;;;;;;;;;5071615;28;20394;-88
2023/01/20 06:09:36;;;;;;;15.43;13.95;;;;;;;;;;5055519;28;20381;-88
2023/01/20 06:12:02;;;;;;;15.40;13.20;;;;;;;;;;5060291;28;20391;-88
2023/01/20 06:14:28;;;;;;;15.38;13.70;;;;;;;;;;5073475;28;20759;-89
2023/01/20 06:16:53;;;;;;;14.13;12.73;;;;;;;;;;5076437;28;20506;-89
2023/01/20 06:19:20;;;;;;;15.00;13.35;;;;;;;;;;5062020;28;20537;-88
2023/01/20 06:21:46;;;;;;;14.77;13.10;;;;;;;;;;5056668;28;21324;-86
2023/01/20 06:24:12;;;;;;;15.10;13.50;;;;;;;;;;5061683;28;20379;-90
2023/01/20 06:26:38;;;;;;;13.60;12.38;;;;;;;;;;5065504;28;20757;-89
2023/01/20 06:29:04;;;;;;;14.38;13.07;;;;;;;;;;5051996;28;20931;-89
2023/01/20 06:31:30;;;;;;;14.35;12.90;;;;;;;;;;5066152;28;20453;-89
2023/01/20 06:33:56;;;;;;;15.90;13.88;;;;;;;;;;5059003;28;20383;-89
2023/01/20 06:36:23;;;;;;;19.25;14.50;;;;;;;;;;5073941;28;20744;-88
2023/01/20 06:38:52;;;;;;;17.42;15.50;;;;;;;;;;5073183;28;20412;-89
2023/01/20 06:41:18;;;;;;;17.73;15.93;;;;;;;;;;5074899;28;20516;-88
2023/01/20 06:43:45;;;;;;;19.88;16.42;;;;;;;;;;5064340;28;20393;-89
2023/01/20 06:46:12;;;;;;;19.27;16.67;;;;;;;;;;5075975;28;20380;-89
2023/01/20 06:48:38;;;;;;;17.27;15.57;;;;;;;;;;5075022;28;20380;-88
2023/01/20 06:51:05;;;;;;;17.40;15.60;;;;;;;;;;5060760;28;20377;-88
2023/01/20 06:53:32;;;;;;;17.38;15.48;;;;;;;;;;5070202;28;20383;-88
2023/01/20 06:55:58;;;;;;;17.25;14.93;;;;;;;;;;5073805;28;20393;-89
2023/01/20 06:58:25;;;;;;;15.57;13.95;;;;;;;;;;5074235;28;20435;-90
2023/01/20 07:00:52;;;;;;;15.70;14.07;;;;;;;;;;5074579;28;20444;-88
2023/01/20 07:03:18;;;;;;;14.43;13.07;;;;;;;;;;5062800;28;20420;-89
2023/01/20 07:05:44;;;;;;;15.88;14.30;;;;;;;;;;5056215;28;20377;-89
2023/01/20 07:08:10;;;;;;;15.60;14.02;;;;;;;;;;5064330;28;20392;-89
2023/01/20 07:10:36;;;;;;;13.97;12.57;;;;;;;;;;5064483;28;20410;-90
2023/01/20 07:13:02;;;;;;;14.88;13.38;;;;;;;;;;5071030;28;20383;-87
2023/01/20 07:15:28;;;;;;;14.32;13.00;;;;;;;;;;5073134;28;20449;-90
2023/01/20 07:17:54;;;;;;;14.85;13.40;;;;;;;;;;5060162;28;20902;-89
2023/01/20 07:20:20;;;;;;;14.70;13.20;;;;;;;;;;5056313;28;20420;-90
2023/01/20 07:22:46;;;;;;;15.65;14.18;;;;;;;;;;5066490;28;20402;-89
2023/01/20 07:25:12;;;;;;;15.05;13.60;;;;;;;;;;5071363;28;20391;-90
2023/01/20 07:27:38;;;;;;;16.00;14.30;;;;;;;;;;5076023;28;20760;-89
2023/01/20 07:30:05;;;;;;;15.25;13.75;;;;;;;;;;5074820;28;20399;-90
2023/01/20 07:32:31;;;;;;;14.98;13.45;;;;;;;;;;5075544;28;20476;-89
2023/01/20 07:34:57;;;;;;;15.63;14.15;;;;;;;;;;5075857;28;20415;-89
2023/01/20 07:37:23;;;;;;;15.35;13.85;;;;;;;;;;5068819;28;20410;-89
2023/01/20 07:39:49;;;;;;;15.90;14.30;;;;;;;;;;5078701;28;20387;-90
2023/01/20 07:42:15;;;;;;;16.75;14.95;;;;;;;;;;5087979;28;20393;-90
2023/01/20 07:44:41;;;;;;;16.90;15.20;;;;;;;;;;5084078;28;20374;-87
2023/01/20 07:47:07;;;;;;;18.70;16.33;;;;;;;;;;5085273;28;20769;-89
2023/01/20 07:49:33;;;;;;;18.45;16.45;;;;;;;;;;5082121;28;20423;-86
2023/01/20 07:51:59;;;;;;;22.02;18.40;;;;;;;;;;5082568;28;20440;-86
2023/01/20 07:54:25;;;;;;;19.92;17.33;;;;;;;;;;5094986;28;20435;-86
2023/01/20 07:56:51;;;;;;;19.08;17.08;;;;;;;;;;5095906;28;20385;-93
2023/01/20 07:59:17;;;;;;;18.73;16.73;;;;;;;;;;5081047;28;20408;-95
2023/01/20 08:01:43;;;;;;;18.40;16.35;;;;;;;;;;5078492;28;20406;-94
2023/01/20 08:04:09;;;;;;;18.23;16.20;;;;;;;;;;5167925;22;20477;-91
2023/01/20 08:06:38;;;;;;;18.08;16.27;;;;;;;;;;5076460;28;20379;-90
2023/01/20 08:09:04;;;;;;;20.08;17.38;;;;;;;;;;5073931;28;20964;-86
2023/01/20 08:11:33;;;;;;;20.98;17.88;;;;;;;;;;5056373;28;20453;-85
2023/01/20 08:13:59;;;;;;;22.48;19.40;;;;;;;;;;5073444;28;20463;-85
2023/01/20 08:16:25;;;;;;;24.10;20.80;;;;;;;;;;5074559;28;20427;-85
2023/01/20 08:18:53;;;;;;;27.17;22.40;;;;;;;;;;5073908;28;20472;-86
2023/01/20 08:21:21;;;;;;;31.00;23.48;;;;;;;;;;5087931;28;20378;-86
2023/01/20 08:23:47;;;;;;;28.35;23.13;;;;;;;;;;5074619;28;20376;-86
2023/01/20 08:26:13;;;;;;;25.90;21.90;;;;;;;;;;5086620;28;20370;-86
2023/01/20 08:28:39;;;;;;;24.85;20.75;;;;;;;;;;5071484;28;20887;-86
2023/01/20 08:31:06;;;;;;;23.55;20.02;;;;;;;;;;5056682;28;20427;-86
2023/01/20 08:33:32;;;;;;;24.92;19.42;;;;;;;;;;5074162;28;20423;-86
2023/01/20 08:36:12;;;;;;;22.77;18.85;;;;;;;;;;5074103;28;20459;-86
2023/01/20 08:38:38;;;;;;;19.58;17.23;;;;;;;;;;5073986;28;20453;-86
2023/01/20 08:41:34;;;;;;;19.42;17.38;;;;;;;;;;5076711;28;20430;-86
2023/01/20 08:44:01;;;;;;;18.90;16.90;;;;;;;;;;5044075;28;20820;-87
2023/01/20 08:46:27;;;;;;;18.73;16.70;;;;;;;;;;5058422;28;20376;-86
2023/01/20 08:48:53;;;;;;;20.58;17.60;;;;;;;;;;5073727;28;20383;-85
2023/01/20 08:51:27;;;;;;;18.88;16.88;;;;;;;;;;5056014;28;20738;-86
2023/01/20 08:53:53;;;;;;;21.02;17.83;;;;;;;;;;5073040;28;20399;-86
2023/01/20 08:56:20;;;;;;;19.17;17.17;;;;;;;;;;5074215;28;20372;-86
2023/01/20 08:58:46;;;;;;;21.38;19.05;;;;;;;;;;5073688;28;20399;-86
2023/01/20 09:01:19;;;;;;;22.73;19.20;;;;;;;;;;5073713;28;20445;-86
2023/01/20 09:03:46;;;;;;;21.17;18.83;;;;;;;;;;5073665;28;20721;-86
2023/01/20 09:06:12;;;;;;;22.30;19.90;;;;;;;;;;5073834;28;20466;-86
2023/01/20 09:08:39;;;;;;;22.92;20.33;;;;;;;;;;5073136;28;20733;-86
2023/01/20 09:11:05;;;;;;;20.92;18.73;;;;;;;;;;5073577;28;20384;-85
2023/01/20 09:13:32;;;;;;;23.13;19.88;;;;;;;;;;5073530;28;20408;-86
2023/01/20 09:15:58;;;;;;;25.80;20.95;;;;;;;;;;5074209;28;20376;-87
2023/01/20 09:18:24;;;;;;;22.80;19.33;;;;;;;;;;5056380;28;20465;-87
2023/01/20 09:20:50;;;;;;;21.15;18.92;;;;;;;;;;5074052;28;20372;-87
2023/01/20 09:23:16;;;;;;;20.77;18.58;;;;;;;;;;5073390;28;20798;-86
2023/01/20 09:25:42;;;;;;;18.92;17.10;;;;;;;;;;5072978;28;20418;-87
2023/01/20 09:28:08;;;;;;;19.40;17.40;;;;;;;;;;5073233;28;20395;-86
2023/01/20 09:30:34;;;;;;;20.80;18.55;;;;;;;;;;5073737;28;20383;-86
2023/01/20 09:33:00;;;;;;;23.92;18.98;;;;;;;;;;5073637;28;20383;-86
2023/01/20 09:35:26;;;;;;;21.77;19.50;;;;;;;;;;5073045;28;20966;-86
2023/01/20 09:46:20;;;;;;;22.77;19.27;;;;;;;;;;5073428;28;20435;-86
2023/01/20 09:54:34;;;;;;;21.27;18.95;;;;;;;;;;5072829;28;20413;-86
2023/01/20 09:57:01;;;;;;;24.42;20.70;;;;;;;;;;5047536;28;20416;-86
2023/01/20 09:59:31;;;;;;;23.25;20.10;;;;;;;;;;5051225;28;20380;-86
2023/01/20 10:02:00;;;;;;;23.52;20.60;;;;;;;;;;5055200;28;20928;-87
2023/01/20 10:04:38;;;;;;;24.33;20.23;;;;;;;;;;5072517;28;20415;-86
2023/01/20 10:07:27;;;;;;;22.48;20.08;;;;;;;;;;5055470;28;20387;-85
2023/01/20 10:09:53;;;;;;;23.73;20.55;;;;;;;;;;5072417;28;20449;-86
2023/01/20 10:12:57;;;;;;;23.87;20.33;;;;;;;;;;5072754;28;20426;-86
2023/01/20 10:15:23;;;;;;;21.23;19.00;;;;;;;;;;4956680;28;20455;-86
2023/01/20 10:17:55;;;;;;;24.15;20.50;;;;;;;;;;4972060;28;20965;-86
2023/01/20 10:20:36;;;;;;;21.52;19.08;;;;;;;;;;5023351;28;20390;-86
2023/01/20 10:23:07;;;;;;;21.88;19.13;;;;;;;;;;5076599;28;20368;-86
2023/01/20 10:25:38;;;;;;;21.38;19.08;;;;;;;;;;5059801;28;20869;-87
2023/01/20 10:28:11;;;;;;;21.17;18.80;;;;;;;;;;5076792;28;20772;-84
2023/01/20 10:30:37;;;;;;;20.80;18.67;;;;;;;;;;5072045;28;20951;-85
2023/01/20 10:33:08;;;;;;;19.70;17.70;;;;;;;;;;5070278;28;20440;-85
2023/01/20 10:35:37;;;;;;;19.42;17.33;;;;;;;;;;5074006;28;20382;-84
2023/01/20 10:38:06;;;;;;;19.33;17.25;;;;;;;;;;5057881;28;20498;-85
2023/01/20 10:40:42;;;;;;;20.95;18.13;;;;;;;;;;5068930;28;20389;-85
2023/01/20 10:43:12;;;;;;;19.80;17.65;;;;;;;;;;5060402;28;20417;-85
2023/01/20 10:45:44;;;;;;;19.88;17.90;;;;;;;;;;5063144;28;20411;-86
2023/01/20 10:48:27;;;;;;;19.38;17.38;;;;;;;;;;5059954;28;20476;-84
2023/01/20 10:51:04;;;;;;;20.63;18.45;;;;;;;;;;5074678;28;20744;-85
2023/01/20 10:53:43;;;;;;;19.33;17.35;;;;;;;;;;5057477;28;20394;-85
2023/01/20 10:56:29;;;;;;;20.42;17.65;;;;;;;;;;5040251;28;20385;-85
2023/01/20 10:58:56;;;;;;;19.52;17.10;;;;;;;;;;5046053;28;20436;-86
2023/01/20 11:01:23;;;;;;;19.92;17.80;;;;;;;;;;5059153;28;20375;-85
2023/01/20 11:03:50;;;;;;;18.23;16.33;;;;;;;;;;5061387;28;20706;-86
2023/01/20 11:06:18;;;;;;;19.67;17.65;;;;;;;;;;5061611;28;20475;-85
2023/01/20 11:08:44;;;;;;;19.25;17.25;;;;;;;;;;5055340;28;20405;-86
2023/01/20 11:11:15;;;;;;;18.88;16.63;;;;;;;;;;5055178;28;20401;-86
2023/01/20 11:13:41;;;;;;;19.98;17.00;;;;;;;;;;5066712;28;20377;-86
2023/01/20 11:16:13;;;;;;;20.63;17.08;;;;;;;;;;5059629;28;20447;-86
2023/01/20 11:18:39;;;;;;;18.35;16.55;;;;;;;;;;5044363;28;20398;-86
2023/01/20 11:21:07;;;;;;;17.83;16.13;;;;;;;;;;5073022;28;20381;-87
2023/01/20 11:23:36;;;;;;;17.80;15.90;;;;;;;;;;5071245;28;20457;-85
2023/01/20 11:26:11;;;;;;;18.92;16.95;;;;;;;;;;5068605;28;20378;-86
2023/01/20 11:28:45;;;;;;;18.23;15.93;;;;;;;;;;5070564;28;20390;-84
2023/01/20 11:31:11;;;;;;;17.48;15.68;;;;;;;;;;5055444;28;20575;-86
2023/01/20 11:33:37;;;;;;;16.85;15.32;;;;;;;;;;5055544;28;20932;-85
2023/01/20 11:36:04;;;;;;;16.92;15.30;;;;;;;;;;5054465;28;20377;-86
2023/01/20 11:38:32;;;;;;;17.50;15.23;;;;;;;;;;5070068;28;20456;-87
2023/01/20 11:40:58;;;;;;;17.42;15.63;;;;;;;;;;5075446;28;20384;-85
2023/01/20 11:43:27;;;;;;;16.38;14.77;;;;;;;;;;5049090;28;20370;-84
2023/01/20 11:46:08;;;;;;;16.88;15.23;;;;;;;;;;5064829;28;20390;-86
2023/01/20 11:48:34;;;;;;;16.25;14.55;;;;;;;;;;5075143;28;20387;-86
2023/01/20 11:51:01;;;;;;;16.50;14.80;;;;;;;;;;5075087;28;20449;-86
2023/01/20 11:53:31;;;;;;;18.85;15.55;;;;;;;;;;5074858;28;20383;-85
2023/01/20 11:56:02;;;;;;;17.67;15.87;;;;;;;;;;5056922;28;20842;-86
2023/01/20 11:58:31;;;;;;;17.35;15.75;;;;;;;;;;5071293;28;20444;-86
2023/01/20 12:01:05;;;;;;;18.13;16.35;;;;;;;;;;5074647;28;20429;-87
2023/01/20 12:03:37;;;;;;;17.58;15.88;;;;;;;;;;5065895;28;20455;-86
2023/01/20 12:06:10;;;;;;;17.42;15.63;;;;;;;;;;5068698;28;20433;-86
2023/01/20 12:08:48;;;;;;;17.20;15.37;;;;;;;;;;5074034;28;20375;-85
2023/01/20 12:11:17;;;;;;;16.30;14.88;;;;;;;;;;5056433;28;20376;-85
2023/01/20 12:16:44;;;;;;;17.85;16.15;;;;;;;;;;5074463;28;20437;-84
2023/01/20 12:19:13;;;;;;;18.07;16.13;;;;;;;;;;5074194;28;20435;-85
2023/01/20 12:21:42;;;;;;;17.65;15.85;;;;;;;;;;5074177;28;20411;-86
2023/01/20 12:24:26;;;;;;;17.42;15.70;;;;;;;;;;5073999;28;20390;-86
2023/01/20 12:26:52;;;;;;;17.23;15.57;;;;;;;;;;5072725;28;20418;-85
2023/01/20 12:29:18;;;;;;;19.40;17.55;;;;;;;;;;5063077;28;20392;-86
2023/01/20 12:31:47;;;;;;;19.55;17.23;;;;;;;;;;5069303;28;20380;-86
2023/01/20 12:34:20;;;;;;;19.42;17.60;;;;;;;;;;5065770;28;20384;-85
2023/01/20 12:37:05;;;;;;;18.30;16.40;;;;;;;;;;5061791;28;20387;-85
2023/01/20 12:39:37;;;;;;;19.00;17.10;;;;;;;;;;5069771;28;20406;-83
2023/01/20 12:42:09;;;;;;;18.65;16.67;;;;;;;;;;5066294;28;20446;-84
2023/01/20 12:44:53;;;;;;;18.67;16.70;;;;;;;;;;5067377;28;20502;-83
2023/01/20 12:47:35;;;;;;;17.52;15.85;;;;;;;;;;5066249;28;20392;-85
2023/01/20 12:50:11;;;;;;;16.67;15.10;;;;;;;;;;5073588;28;20383;-85
2023/01/20 12:52:56;;;;;;;17.88;16.17;;;;;;;;;;5054840;28;20433;-86
2023/01/20 12:55:28;;;;;;;17.92;16.10;;;;;;;;;;5072247;28;20420;-87
2023/01/20 12:58:07;;;;;;;17.50;15.70;;;;;;;;;;5055136;28;20931;-86
2023/01/20 13:00:33;;;;;;;17.42;15.85;;;;;;;;;;5074336;28;20383;-88
2023/01/20 13:03:11;;;;;;;18.08;16.30;;;;;;;;;;5062985;28;20395;-87
2023/01/20 13:05:47;;;;;;;16.30;14.90;;;;;;;;;;5050300;28;20771;-87
2023/01/20 13:08:36;;;;;;;17.02;15.40;;;;;;;;;;5070870;28;20455;-86
2023/01/20 13:11:20;;;;;;;16.02;14.43;;;;;;;;;;5070039;28;20432;-87
2023/01/20 13:13:52;;;;;;;15.73;14.32;;;;;;;;;;5064210;28;20856;-87
2023/01/20 13:16:37;;;;;;;16.98;15.27;;;;;;;;;;5073044;28;20837;-86
2023/01/20 13:19:12;;;;;;;16.52;14.82;;;;;;;;;;5067594;28;20493;-87
2023/01/20 13:21:40;;;;;;;17.08;14.80;;;;;;;;;;5049882;28;20468;-87
2023/01/20 13:24:14;;;;;;;18.08;14.98;;;;;;;;;;5042468;28;20464;-87
2023/01/20 13:26:41;;;;;;;17.75;16.02;;;;;;;;;;5067985;28;20391;-86
2023/01/20 13:29:19;;;;;;;16.95;15.25;;;;;;;;;;5069791;28;20387;-88
2023/01/20 13:31:45;;;;;;;17.30;15.60;;;;;;;;;;5068255;28;20379;-87
2023/01/20 13:34:20;;;;;;;16.75;15.25;;;;;;;;;;5072709;28;20383;-88
2023/01/20 13:37:02;;;;;;;19.00;15.75;;;;;;;;;;5072759;28;20383;-87
2023/01/20 13:39:39;;;;;;;16.77;15.27;;;;;;;;;;5066091;28;20415;-86
2023/01/20 13:42:24;;;;;;;16.50;14.80;;;;;;;;;;5068418;28;20376;-88
2023/01/20 13:45:08;;;;;;;17.20;15.48;;;;;;;;;;5069026;28;20395;-88
2023/01/20 13:47:53;;;;;;;16.93;15.33;;;;;;;;;;5061787;28;20495;-86
2023/01/20 13:50:31;;;;;;;16.17;14.53;;;;;;;;;;5068126;28;20388;-87
2023/01/20 13:52:57;;;;;;;15.68;14.27;;;;;;;;;;5049804;28;20381;-85
2023/01/20 13:55:30;;;;;;;16.60;15.10;;;;;;;;;;5071725;28;20835;-86
2023/01/20 13:57:56;;;;;;;15.82;14.32;;;;;;;;;;5071967;28;20411;-84
2023/01/20 14:00:22;;;;;;;15.40;14.05;;;;;;;;;;5070511;28;20372;-85
2023/01/20 14:02:49;;;;;;;15.93;14.52;;;;;;;;;;5069027;28;20383;-84
2023/01/20 14:05:25;;;;;;;15.80;14.48;;;;;;;;;;5071325;28;20558;-84
2023/01/20 14:07:51;;;;;;;16.67;15.13;;;;;;;;;;5072048;28;20372;-83
2023/01/20 14:10:18;;;;;;;16.88;15.18;;;;;;;;;;5071834;28;20906;-86
2023/01/20 14:12:44;;;;;;;17.03;15.07;;;;;;;;;;5072135;28;20383;-85
2023/01/20 14:15:28;;;;;;;15.95;14.32;;;;;;;;;;5072122;28;20463;-87
2023/01/20 14:17:54;;;;;;;15.77;14.20;;;;;;;;;;5044027;28;20460;-86
2023/01/20 14:20:22;;;;;;;15.27;13.88;;;;;;;;;;5053352;28;20377;-86
2023/01/20 14:22:49;;;;;;;15.90;14.30;;;;;;;;;;5065185;28;20399;-86
2023/01/20 14:25:19;;;;;;;17.10;15.30;;;;;;;;;;5058605;28;20388;-86
2023/01/20 14:27:45;;;;;;;16.92;15.32;;;;;;;;;;5055207;28;20397;-86
2023/01/20 14:30:19;;;;;;;17.00;15.30;;;;;;;;;;5068071;28;20402;-82
2023/01/20 14:32:45;;;;;;;17.08;15.30;;;;;;;;;;5072297;28;20375;-85
2023/01/20 14:35:20;;;;;;;15.85;14.38;;;;;;;;;;5053935;28;20446;-86
2023/01/20 14:37:49;;;;;;;16.63;14.30;;;;;;;;;;5063560;28;20451;-84
2023/01/20 14:40:18;;;;;;;15.75;13.23;;;;;;;;;;5069721;28;20396;-84
2023/01/20 14:42:54;;;;;;;14.80;13.35;;;;;;;;;;5065516;28;20382;-84
2023/01/20 14:45:22;;;;;;;15.85;14.25;;;;;;;;;;5072634;28;20371;-86